Time,TemperatureF,DewpointF,PressureIn,WindDirection,WindDirectionDegrees,WindSpeedMPH,WindSpeedGustMPH,Humidity,HourlyPrecipIn,Conditions,Clouds,dailyrainin,SoftwareType,DateUTC
2013-06-20 00:00:00,54.0,49.9,30.08,NNW,348,0.0,0.0,86,0.00,,,0.00,VWS V14.01,2013-06-20 04:00:00,
2013-06-20 00:01:00,53.9,49.8,30.07,NNW,348,0.0,0.0,86,0.00,,CLR,0.00,VWS V14.01,2013-06-20 04:01:00,
2013-06-20 00:06:00,53.9,49.8,30.07,NNW,348,0.0,0.0,86,0.00,,CLR,0.00,VWS V14.01,2013-06-20 04:06:00,
2013-06-20 00:10:00,53.9,50.1,30.08,NNW,348,1.0,1.0,87,0.00,,,0.00,VWS V14.01,2013-06-20 04:10:00,
2013-06-20 00:11:00,54.1,50.0,30.08,NNW,348,0.0,0.0,86,0.00,,CLR,0.00,VWS V14.01,2013-06-20 04:11:00,
2013-06-20 00:16:00,53.9,50.1,30.08,NNW,348,0.0,1.0,87,0.00,,CLR,0.00,VWS V14.01,2013-06-20 04:16:00,
2013-06-20 00:20:00,53.3,49.5,30.08,West,267,0.0,3.0,87,0.00,,,0.00,VWS V14.01,2013-06-20 04:20:00,
2013-06-20 00:21:00,53.8,50.0,30.08,NNW,348,1.0,2.0,87,0.00,,CLR,0.00,VWS V14.01,2013-06-20 04:21:00,
2013-06-20 00:26:00,53.3,49.5,30.08,West,267,1.0,3.0,87,0.00,,CLR,0.00,VWS V14.01,2013-06-20 04:26:00,
2013-06-20 00:30:00,53.1,49.7,30.08,West,267,0.0,2.0,88,0.00,,,0.00,VWS V14.01,2013-06-20 04:30:00,
2013-06-20 00:31:00,53.3,49.8,30.08,West,267,1.0,2.0,88,0.00,,CLR,0.00,VWS V14.01,2013-06-20 04:31:00,
2013-06-20 00:36:00,53.2,49.7,30.08,West,267,1.0,2.0,88,0.00,,CLR,0.00,VWS V14.01,2013-06-20 04:36:00,
2013-06-20 00:40:00,52.9,49.5,30.08,West,267,0.0,1.0,88,0.00,,,0.00,VWS V14.01,2013-06-20 04:40:00,
2013-06-20 00:41:00,53.1,49.7,30.08,West,267,0.0,0.0,88,0.00,,CLR,0.00,VWS V14.01,2013-06-20 04:41:00,
2013-06-20 00:46:00,53.0,49.5,30.08,West,267,0.0,0.0,88,0.00,,CLR,0.00,VWS V14.01,2013-06-20 04:46:00,
2013-06-20 00:50:00,52.7,49.6,30.08,West,267,0.0,0.0,89,0.00,,,0.00,VWS V14.01,2013-06-20 04:50:00,
2013-06-20 00:51:00,52.8,49.7,30.08,West,267,0.0,0.0,89,0.00,,CLR,0.00,VWS V14.01,2013-06-20 04:51:00,
2013-06-20 00:56:00,52.7,49.5,30.08,West,267,0.0,0.0,89,0.00,,CLR,0.00,VWS V14.01,2013-06-20 04:56:00,
2013-06-20 01:00:00,53.0,50.2,30.08,West,267,0.0,0.0,90,0.00,,,0.00,VWS V14.01,2013-06-20 05:00:00,
2013-06-20 01:01:00,52.7,49.5,30.08,West,267,0.0,0.0,89,0.00,,OVC048,0.00,VWS V14.01,2013-06-20 05:01:00,
2013-06-20 01:06:00,52.9,50.0,30.08,West,267,0.0,0.0,90,0.00,,OVC048,0.00,VWS V14.01,2013-06-20 05:06:00,
2013-06-20 01:10:00,52.8,50.0,30.08,West,267,0.0,0.0,90,0.00,,,0.00,VWS V14.01,2013-06-20 05:10:00,
2013-06-20 01:11:00,53.0,50.2,30.08,West,267,0.0,0.0,90,0.00,,OVC048,0.00,VWS V14.01,2013-06-20 05:11:00,
2013-06-20 01:16:00,52.9,50.0,30.08,West,267,0.0,0.0,90,0.00,,OVC048,0.00,VWS V14.01,2013-06-20 05:16:00,
2013-06-20 01:20:00,52.9,50.0,30.08,West,267,0.0,0.0,90,0.00,,,0.00,VWS V14.01,2013-06-20 05:20:00,
2013-06-20 01:21:00,52.8,50.0,30.08,West,267,0.0,0.0,90,0.00,,OVC048,0.00,VWS V14.01,2013-06-20 05:21:00,
2013-06-20 01:26:00,52.9,50.0,30.08,West,267,0.0,0.0,90,0.00,,OVC048,0.00,VWS V14.01,2013-06-20 05:26:00,
2013-06-20 01:30:00,52.7,50.2,30.08,West,267,0.0,0.0,91,0.00,,,0.00,VWS V14.01,2013-06-20 05:30:00,
2013-06-20 01:31:00,52.8,50.2,30.08,West,267,0.0,0.0,91,0.00,,OVC048,0.00,VWS V14.01,2013-06-20 05:31:00,
2013-06-20 01:36:00,52.7,50.2,30.08,West,267,0.0,0.0,91,0.00,,OVC048,0.00,VWS V14.01,2013-06-20 05:36:00,
2013-06-20 01:40:00,52.8,50.2,30.08,West,267,0.0,0.0,91,0.00,,,0.00,VWS V14.01,2013-06-20 05:40:00,
2013-06-20 01:41:00,52.8,50.2,30.08,West,267,0.0,0.0,91,0.00,,OVC048,0.00,VWS V14.01,2013-06-20 05:41:00,
2013-06-20 01:46:00,52.8,50.2,30.08,West,267,0.0,0.0,91,0.00,,OVC048,0.00,VWS V14.01,2013-06-20 05:46:00,
2013-06-20 01:50:00,52.6,50.0,30.08,West,267,0.0,0.0,91,0.00,,,0.00,VWS V14.01,2013-06-20 05:50:00,
2013-06-20 01:51:00,52.7,50.2,30.08,West,267,0.0,0.0,91,0.00,,OVC048,0.00,VWS V14.01,2013-06-20 05:51:00,
2013-06-20 01:56:00,52.6,50.0,30.08,West,267,0.0,0.0,91,0.00,,OVC048,0.00,VWS V14.01,2013-06-20 05:56:00,
2013-06-20 02:00:00,52.6,50.3,30.08,West,267,0.0,0.0,92,0.00,,,0.00,VWS V14.01,2013-06-20 06:00:00,
2013-06-20 02:01:00,52.5,50.0,30.08,West,267,0.0,0.0,91,0.00,,BKN050,0.00,VWS V14.01,2013-06-20 06:01:00,
2013-06-20 02:06:00,52.6,50.3,30.08,West,267,0.0,0.0,92,0.00,,BKN050,0.00,VWS V14.01,2013-06-20 06:06:00,
2013-06-20 02:10:00,52.6,50.3,30.08,West,267,0.0,0.0,92,0.00,,,0.00,VWS V14.01,2013-06-20 06:10:00,
2013-06-20 02:11:00,52.5,50.2,30.08,West,267,0.0,0.0,92,0.00,,BKN050,0.00,VWS V14.01,2013-06-20 06:11:00,
2013-06-20 02:16:00,52.5,50.2,30.08,West,267,0.0,0.0,92,0.00,,BKN050,0.00,VWS V14.01,2013-06-20 06:16:00,
2013-06-20 02:20:00,52.5,50.2,30.07,West,267,0.0,0.0,92,0.00,,,0.00,VWS V14.01,2013-06-20 06:20:00,
2013-06-20 02:21:00,52.5,50.2,30.08,West,267,0.0,0.0,92,0.00,,BKN050,0.00,VWS V14.01,2013-06-20 06:21:00,
2013-06-20 02:26:00,52.6,50.3,30.07,West,267,0.0,0.0,92,0.00,,BKN050,0.00,VWS V14.01,2013-06-20 06:26:00,
2013-06-20 02:30:00,52.2,50.0,30.08,West,267,0.0,0.0,92,0.00,,,0.00,VWS V14.01,2013-06-20 06:30:00,
2013-06-20 02:31:00,52.3,50.0,30.07,West,267,0.0,0.0,92,0.00,,BKN050,0.00,VWS V14.01,2013-06-20 06:31:00,
2013-06-20 02:36:00,52.2,50.0,30.07,West,267,0.0,0.0,92,0.00,,BKN050,0.00,VWS V14.01,2013-06-20 06:36:00,
2013-06-20 02:40:00,52.0,50.0,30.08,West,267,0.0,0.0,93,0.00,,,0.00,VWS V14.01,2013-06-20 06:40:00,
2013-06-20 02:41:00,52.0,50.0,30.08,West,267,0.0,0.0,93,0.00,,BKN050,0.00,VWS V14.01,2013-06-20 06:41:00,
2013-06-20 02:47:00,51.9,49.9,30.08,West,267,0.0,0.0,93,0.00,,BKN050,0.00,VWS V14.01,2013-06-20 06:47:00,
2013-06-20 02:50:00,52.0,50.0,30.08,West,267,0.0,0.0,93,0.00,,,0.00,VWS V14.01,2013-06-20 06:50:00,
2013-06-20 02:52:00,52.1,50.1,30.08,West,267,0.0,0.0,93,0.00,,BKN050,0.00,VWS V14.01,2013-06-20 06:52:00,
2013-06-20 02:57:00,52.1,50.1,30.08,West,267,0.0,0.0,93,0.00,,BKN050,0.00,VWS V14.01,2013-06-20 06:57:00,
2013-06-20 03:00:00,51.9,49.9,30.08,West,267,0.0,0.0,93,0.00,,,0.00,VWS V14.01,2013-06-20 07:00:00,
2013-06-20 03:02:00,51.9,49.9,30.08,West,267,0.0,0.0,93,0.00,,FEW050,0.00,VWS V14.01,2013-06-20 07:02:00,
2013-06-20 03:07:00,51.9,49.9,30.08,West,267,0.0,0.0,93,0.00,,FEW050,0.00,VWS V14.01,2013-06-20 07:07:00,
2013-06-20 03:10:00,51.7,49.8,30.08,West,267,0.0,0.0,93,0.00,,,0.00,VWS V14.01,2013-06-20 07:10:00,
2013-06-20 03:12:00,51.9,49.9,30.08,West,267,0.0,0.0,93,0.00,,FEW050,0.00,VWS V14.01,2013-06-20 07:12:00,
2013-06-20 03:17:00,51.7,49.8,30.08,West,267,0.0,0.0,93,0.00,,FEW050,0.00,VWS V14.01,2013-06-20 07:17:00,
2013-06-20 03:20:00,51.6,49.9,30.08,West,267,0.0,0.0,94,0.00,,,0.00,VWS V14.01,2013-06-20 07:20:00,
2013-06-20 03:22:00,51.6,49.7,30.08,West,267,0.0,0.0,93,0.00,,FEW050,0.00,VWS V14.01,2013-06-20 07:22:00,
2013-06-20 03:27:00,51.6,49.9,30.08,West,267,0.0,0.0,94,0.00,,FEW050,0.00,VWS V14.01,2013-06-20 07:27:00,
2013-06-20 03:30:00,51.6,49.9,30.08,West,267,0.0,0.0,94,0.00,,,0.00,VWS V14.01,2013-06-20 07:30:00,
2013-06-20 03:32:00,51.7,50.0,30.08,West,267,0.0,0.0,94,0.00,,FEW050,0.00,VWS V14.01,2013-06-20 07:32:00,
2013-06-20 03:37:00,51.6,49.9,30.08,West,267,0.0,0.0,94,0.00,,FEW050,0.00,VWS V14.01,2013-06-20 07:37:00,
2013-06-20 03:40:00,51.4,49.7,30.08,West,267,0.0,0.0,94,0.00,,,0.00,VWS V14.01,2013-06-20 07:40:00,
2013-06-20 03:42:00,51.5,49.8,30.08,West,267,0.0,0.0,94,0.00,,FEW050,0.00,VWS V14.01,2013-06-20 07:42:00,
2013-06-20 03:47:00,51.4,49.7,30.08,West,267,0.0,0.0,94,0.00,,FEW050,0.00,VWS V14.01,2013-06-20 07:47:00,
2013-06-20 03:50:00,51.4,49.7,30.08,West,267,0.0,0.0,94,0.00,,,0.00,VWS V14.01,2013-06-20 07:50:00,
2013-06-20 03:52:00,51.3,49.6,30.08,West,267,0.0,0.0,94,0.00,,FEW050,0.00,VWS V14.01,2013-06-20 07:52:00,
2013-06-20 03:57:00,51.3,49.6,30.08,West,267,0.0,0.0,94,0.00,,FEW050,0.00,VWS V14.01,2013-06-20 07:57:00,
2013-06-20 04:00:00,51.3,49.6,30.08,West,267,0.0,0.0,94,0.00,,,0.00,VWS V14.01,2013-06-20 08:00:00,
2013-06-20 04:02:00,51.4,49.7,30.08,West,267,0.0,0.0,94,0.00,,CLR,0.00,VWS V14.01,2013-06-20 08:02:00,
2013-06-20 04:07:00,51.3,49.6,30.08,West,267,0.0,0.0,94,0.00,,CLR,0.00,VWS V14.01,2013-06-20 08:07:00,
2013-06-20 04:10:00,51.1,49.4,30.08,West,267,0.0,0.0,94,0.00,,,0.00,VWS V14.01,2013-06-20 08:10:00,
2013-06-20 04:12:00,51.1,49.4,30.08,West,267,0.0,0.0,94,0.00,,CLR,0.00,VWS V14.01,2013-06-20 08:12:00,
2013-06-20 04:17:00,51.1,49.4,30.08,West,267,0.0,0.0,94,0.00,,CLR,0.00,VWS V14.01,2013-06-20 08:17:00,
2013-06-20 04:20:00,51.0,49.3,30.08,West,267,0.0,0.0,94,0.00,,,0.00,VWS V14.01,2013-06-20 08:20:00,
2013-06-20 04:22:00,51.1,49.4,30.08,West,267,0.0,0.0,94,0.00,,CLR,0.00,VWS V14.01,2013-06-20 08:22:00,
2013-06-20 04:27:00,51.0,49.3,30.08,West,267,0.0,0.0,94,0.00,,CLR,0.00,VWS V14.01,2013-06-20 08:27:00,
2013-06-20 04:30:00,51.0,49.3,30.08,West,267,0.0,0.0,94,0.00,,,0.00,VWS V14.01,2013-06-20 08:30:00,
2013-06-20 04:32:00,51.0,49.3,30.08,West,267,0.0,0.0,94,0.00,,CLR,0.00,VWS V14.01,2013-06-20 08:32:00,
2013-06-20 04:37:00,51.0,49.3,30.08,West,267,0.0,0.0,94,0.00,,CLR,0.00,VWS V14.01,2013-06-20 08:37:00,
2013-06-20 04:40:00,51.0,49.3,30.08,West,267,0.0,0.0,94,0.00,,,0.00,VWS V14.01,2013-06-20 08:40:00,
2013-06-20 04:42:00,51.0,49.3,30.08,West,267,0.0,0.0,94,0.00,,CLR,0.00,VWS V14.01,2013-06-20 08:42:00,
2013-06-20 04:47:00,51.0,49.3,30.08,West,267,0.0,0.0,94,0.00,,CLR,0.00,VWS V14.01,2013-06-20 08:47:00,
2013-06-20 04:50:00,50.7,49.3,30.08,West,267,0.0,0.0,95,0.00,,,0.00,VWS V14.01,2013-06-20 08:50:00,
2013-06-20 04:52:00,50.9,49.2,30.08,West,267,0.0,0.0,94,0.00,,CLR,0.00,VWS V14.01,2013-06-20 08:52:00,
2013-06-20 04:57:00,50.7,49.3,30.08,West,267,0.0,0.0,95,0.00,,CLR,0.00,VWS V14.01,2013-06-20 08:57:00,
2013-06-20 05:00:00,50.9,49.5,30.08,West,267,0.0,0.0,95,0.00,,,0.00,VWS V14.01,2013-06-20 09:00:00,
2013-06-20 05:02:00,50.8,49.4,30.08,West,267,0.0,0.0,95,0.00,,CLR,0.00,VWS V14.01,2013-06-20 09:02:00,
2013-06-20 05:07:00,50.9,49.5,30.08,West,267,0.0,0.0,95,0.00,,CLR,0.00,VWS V14.01,2013-06-20 09:07:00,
2013-06-20 05:10:00,50.9,49.5,30.08,West,267,0.0,0.0,95,0.00,,,0.00,VWS V14.01,2013-06-20 09:10:00,
2013-06-20 05:12:00,50.9,49.5,30.08,West,267,0.0,0.0,95,0.00,,CLR,0.00,VWS V14.01,2013-06-20 09:12:00,
2013-06-20 05:17:00,50.9,49.5,30.08,West,267,0.0,0.0,95,0.00,,CLR,0.00,VWS V14.01,2013-06-20 09:17:00,
2013-06-20 05:20:00,50.9,49.5,30.08,West,267,0.0,1.0,95,0.00,,,0.00,VWS V14.01,2013-06-20 09:20:00,
2013-06-20 05:22:00,50.9,49.5,30.08,West,267,0.0,0.0,95,0.00,,CLR,0.00,VWS V14.01,2013-06-20 09:22:00,
2013-06-20 05:27:00,50.9,49.5,30.08,West,267,0.0,1.0,95,0.00,,CLR,0.00,VWS V14.01,2013-06-20 09:27:00,
2013-06-20 05:30:00,50.7,49.3,30.09,West,267,0.0,0.0,95,0.00,,,0.00,VWS V14.01,2013-06-20 09:30:00,
2013-06-20 05:32:00,50.8,49.4,30.08,West,267,0.0,0.0,95,0.00,,CLR,0.00,VWS V14.01,2013-06-20 09:32:00,
2013-06-20 05:37:00,50.7,49.3,30.09,West,267,0.0,0.0,95,0.00,,CLR,0.00,VWS V14.01,2013-06-20 09:37:00,
2013-06-20 05:40:00,50.7,49.3,30.09,West,268,0.0,0.0,95,0.00,,,0.00,VWS V14.01,2013-06-20 09:40:00,
2013-06-20 05:42:00,50.6,49.2,30.09,West,268,0.0,0.0,95,0.00,,CLR,0.00,VWS V14.01,2013-06-20 09:42:00,
2013-06-20 05:47:00,50.6,49.2,30.09,West,268,0.0,0.0,95,0.00,,CLR,0.00,VWS V14.01,2013-06-20 09:47:00,
2013-06-20 05:50:00,50.6,49.2,30.09,West,268,0.0,0.0,95,0.00,,,0.00,VWS V14.01,2013-06-20 09:50:00,
2013-06-20 05:52:00,50.7,49.3,30.09,West,268,0.0,0.0,95,0.00,,CLR,0.00,VWS V14.01,2013-06-20 09:52:00,
2013-06-20 05:57:00,50.6,49.2,30.09,West,268,0.0,0.0,95,0.00,,CLR,0.00,VWS V14.01,2013-06-20 09:57:00,
2013-06-20 06:00:00,50.7,49.3,30.10,West,268,0.0,0.0,95,0.00,,,0.00,VWS V14.01,2013-06-20 10:00:00,
2013-06-20 06:02:00,50.5,49.1,30.09,West,268,0.0,0.0,95,0.00,,CLR,0.00,VWS V14.01,2013-06-20 10:02:00,
2013-06-20 06:07:00,50.7,49.3,30.10,West,268,0.0,0.0,95,0.00,,CLR,0.00,VWS V14.01,2013-06-20 10:07:00,
2013-06-20 06:10:00,51.2,49.8,30.10,West,268,0.0,0.0,95,0.00,,,0.00,VWS V14.01,2013-06-20 10:10:00,
2013-06-20 06:12:00,51.0,49.6,30.10,West,268,0.0,0.0,95,0.00,,CLR,0.00,VWS V14.01,2013-06-20 10:12:00,
2013-06-20 06:17:00,51.2,49.8,30.10,West,268,0.0,0.0,95,0.00,,CLR,0.00,VWS V14.01,2013-06-20 10:17:00,
2013-06-20 06:20:00,51.4,50.0,30.10,West,268,0.0,0.0,95,0.00,,,0.00,VWS V14.01,2013-06-20 10:20:00,
2013-06-20 06:22:00,51.2,49.8,30.10,West,268,0.0,0.0,95,0.00,,CLR,0.00,VWS V14.01,2013-06-20 10:22:00,
2013-06-20 06:27:00,51.4,50.0,30.10,West,268,0.0,0.0,95,0.00,,CLR,0.00,VWS V14.01,2013-06-20 10:27:00,
2013-06-20 06:30:00,52.1,50.7,30.11,West,268,0.0,0.0,95,0.00,,,0.00,VWS V14.01,2013-06-20 10:30:00,
2013-06-20 06:32:00,51.7,50.6,30.10,West,268,0.0,0.0,96,0.00,,CLR,0.00,VWS V14.01,2013-06-20 10:32:00,
2013-06-20 06:37:00,52.1,50.7,30.11,West,268,0.0,0.0,95,0.00,,CLR,0.00,VWS V14.01,2013-06-20 10:37:00,
2013-06-20 06:40:00,52.5,51.4,30.11,West,268,0.0,0.0,96,0.00,,,0.00,VWS V14.01,2013-06-20 10:40:00,
2013-06-20 06:42:00,52.3,51.2,30.11,West,268,0.0,0.0,96,0.00,,CLR,0.00,VWS V14.01,2013-06-20 10:42:00,
2013-06-20 06:47:00,52.5,51.4,30.11,West,268,0.0,0.0,96,0.00,,CLR,0.00,VWS V14.01,2013-06-20 10:47:00,
2013-06-20 06:50:00,51.8,50.7,30.11,West,268,0.0,0.0,96,0.00,,,0.00,VWS V14.01,2013-06-20 10:50:00,
2013-06-20 06:52:00,52.2,51.1,30.11,West,268,0.0,0.0,96,0.00,,CLR,0.00,VWS V14.01,2013-06-20 10:52:00,
2013-06-20 06:57:00,51.9,50.8,30.11,West,268,0.0,0.0,96,0.00,,CLR,0.00,VWS V14.01,2013-06-20 10:57:00,
2013-06-20 07:00:00,52.0,50.9,30.11,West,268,0.0,0.0,96,0.00,,,0.00,VWS V14.01,2013-06-20 11:00:00,
2013-06-20 07:02:00,51.7,50.6,30.11,West,268,0.0,0.0,96,0.00,,CLR,0.00,VWS V14.01,2013-06-20 11:02:00,
2013-06-20 07:07:00,52.0,50.9,30.11,West,268,0.0,0.0,96,0.00,,CLR,0.00,VWS V14.01,2013-06-20 11:07:00,
2013-06-20 07:10:00,53.3,52.2,30.11,West,268,0.0,0.0,96,0.00,,,0.00,VWS V14.01,2013-06-20 11:10:00,
2013-06-20 07:12:00,52.4,51.3,30.11,West,268,0.0,0.0,96,0.00,,CLR,0.00,VWS V14.01,2013-06-20 11:12:00,
2013-06-20 07:17:00,53.2,52.1,30.11,West,268,0.0,0.0,96,0.00,,CLR,0.00,VWS V14.01,2013-06-20 11:17:00,
2013-06-20 07:22:00,53.3,52.2,30.11,West,268,0.0,0.0,96,0.00,,CLR,0.00,VWS V14.01,2013-06-20 11:22:00,
2013-06-20 07:27:00,53.0,51.9,30.11,West,268,0.0,1.0,96,0.00,,CLR,0.00,VWS V14.01,2013-06-20 11:27:00,
2013-06-20 07:30:00,53.9,52.8,30.11,West,268,0.0,0.0,96,0.00,,,0.00,VWS V14.01,2013-06-20 11:30:00,
2013-06-20 07:32:00,53.4,52.3,30.11,West,268,0.0,0.0,96,0.00,,CLR,0.00,VWS V14.01,2013-06-20 11:32:00,
2013-06-20 07:37:00,53.9,52.8,30.11,West,268,0.0,0.0,96,0.00,,CLR,0.00,VWS V14.01,2013-06-20 11:37:00,
2013-06-20 07:40:00,54.9,53.8,30.11,West,268,0.0,0.0,96,0.00,,,0.00,VWS V14.01,2013-06-20 11:40:00,
2013-06-20 07:42:00,54.4,53.3,30.11,West,268,0.0,0.0,96,0.00,,CLR,0.00,VWS V14.01,2013-06-20 11:42:00,
2013-06-20 07:47:00,54.9,53.8,30.11,West,268,0.0,0.0,96,0.00,,CLR,0.00,VWS V14.01,2013-06-20 11:47:00,
2013-06-20 07:50:00,56.2,55.1,30.12,West,268,0.0,0.0,96,0.00,,,0.00,VWS V14.01,2013-06-20 11:50:00,
2013-06-20 07:52:00,55.3,54.2,30.12,West,268,0.0,0.0,96,0.00,,CLR,0.00,VWS V14.01,2013-06-20 11:52:00,
2013-06-20 07:57:00,56.1,55.0,30.12,West,268,0.0,0.0,96,0.00,,CLR,0.00,VWS V14.01,2013-06-20 11:57:00,
2013-06-20 08:00:00,57.9,56.8,30.12,West,268,0.0,0.0,96,0.00,,,0.00,VWS V14.01,2013-06-20 12:00:00,
2013-06-20 08:02:00,56.7,55.6,30.12,West,268,0.0,0.0,96,0.00,,CLR,0.00,VWS V14.01,2013-06-20 12:02:00,
2013-06-20 08:07:00,57.8,56.7,30.12,West,268,0.0,0.0,96,0.00,,CLR,0.00,VWS V14.01,2013-06-20 12:07:00,
2013-06-20 08:12:00,58.7,57.8,30.12,West,268,1.0,1.0,97,0.00,,CLR,0.00,VWS V14.01,2013-06-20 12:12:00,
2013-06-20 08:17:00,59.1,58.0,30.12,West,268,0.0,1.0,96,0.00,,CLR,0.00,VWS V14.01,2013-06-20 12:17:00,
2013-06-20 08:20:00,59.1,58.0,30.13,West,268,0.0,2.0,96,0.00,,,0.00,VWS V14.01,2013-06-20 12:20:00,
2013-06-20 08:22:00,58.8,57.7,30.13,West,268,0.0,2.0,96,0.00,,CLR,0.00,VWS V14.01,2013-06-20 12:22:00,
2013-06-20 08:27:00,59.1,58.0,30.13,West,268,0.0,2.0,96,0.00,,CLR,0.00,VWS V14.01,2013-06-20 12:27:00,
2013-06-20 08:30:00,60.2,59.1,30.13,West,268,0.0,1.0,96,0.00,,,0.00,VWS V14.01,2013-06-20 12:30:00,
2013-06-20 08:32:00,59.6,58.5,30.13,West,268,0.0,1.0,96,0.00,,CLR,0.00,VWS V14.01,2013-06-20 12:32:00,
2013-06-20 08:37:00,60.2,59.1,30.13,West,268,0.0,1.0,96,0.00,,CLR,0.00,VWS V14.01,2013-06-20 12:37:00,
2013-06-20 08:40:00,61.4,60.2,30.13,West,268,1.0,2.0,96,0.00,,,0.00,VWS V14.01,2013-06-20 12:40:00,
2013-06-20 08:43:00,60.8,59.7,30.13,West,268,1.0,1.0,96,0.00,,CLR,0.00,VWS V14.01,2013-06-20 12:43:00,
2013-06-20 08:48:00,61.4,60.2,30.13,West,268,1.0,2.0,96,0.00,,CLR,0.00,VWS V14.01,2013-06-20 12:48:00,
2013-06-20 08:50:00,62.3,60.8,30.12,SW,231,2.0,3.0,95,0.00,,,0.00,VWS V14.01,2013-06-20 12:50:00,
2013-06-20 08:53:00,61.7,60.3,30.12,West,268,1.0,3.0,95,0.00,,CLR,0.00,VWS V14.01,2013-06-20 12:53:00,
2013-06-20 08:58:00,62.3,60.8,30.12,SW,230,2.0,3.0,95,0.00,,CLR,0.00,VWS V14.01,2013-06-20 12:58:00,
2013-06-20 09:00:00,63.2,61.2,30.13,ESE,123,1.0,3.0,93,0.00,,,0.00,VWS V14.01,2013-06-20 13:00:00,
2013-06-20 09:03:00,62.6,61.5,30.12,SW,229,1.0,3.0,96,0.00,,CLR,0.00,VWS V14.01,2013-06-20 13:03:00,
2013-06-20 09:08:00,63.2,61.2,30.13,ESE,123,1.0,3.0,93,0.00,,CLR,0.00,VWS V14.01,2013-06-20 13:08:00,
2013-06-20 09:10:00,63.3,60.3,30.13,SSW,198,0.0,3.0,90,0.00,,,0.00,VWS V14.01,2013-06-20 13:10:00,
2013-06-20 09:13:00,63.1,60.4,30.13,WSW,238,2.0,3.0,91,0.00,,CLR,0.00,VWS V14.01,2013-06-20 13:13:00,
2013-06-20 09:18:00,63.3,60.3,30.13,SSW,198,0.0,3.0,90,0.00,,CLR,0.00,VWS V14.01,2013-06-20 13:18:00,
2013-06-20 09:20:00,63.4,59.8,30.13,WSW,248,3.0,6.0,88,0.00,,,0.00,VWS V14.01,2013-06-20 13:20:00,
2013-06-20 09:23:00,63.2,59.9,30.13,SSW,213,1.0,6.0,89,0.00,,CLR,0.00,VWS V14.01,2013-06-20 13:23:00,
2013-06-20 09:28:00,63.4,59.8,30.13,WSW,248,3.0,3.0,88,0.00,,CLR,0.00,VWS V14.01,2013-06-20 13:28:00,
2013-06-20 09:30:00,63.8,59.9,30.14,SSW,201,2.0,4.0,87,0.00,,,0.00,VWS V14.01,2013-06-20 13:30:00,
2013-06-20 09:33:00,63.6,60.0,30.13,WSW,248,2.0,4.0,88,0.00,,CLR,0.00,VWS V14.01,2013-06-20 13:33:00,
2013-06-20 09:38:00,63.9,60.0,30.14,SSW,201,2.0,2.0,87,0.00,,CLR,0.00,VWS V14.01,2013-06-20 13:38:00,
2013-06-20 09:40:00,65.0,60.7,30.14,West,279,2.0,2.0,86,0.00,,,0.00,VWS V14.01,2013-06-20 13:40:00,
2013-06-20 09:43:00,64.5,60.5,30.14,SSW,201,0.0,2.0,87,0.00,,CLR,0.00,VWS V14.01,2013-06-20 13:43:00,
2013-06-20 09:48:00,65.0,60.7,30.14,West,279,2.0,2.0,86,0.00,,CLR,0.00,VWS V14.01,2013-06-20 13:48:00,
2013-06-20 09:50:00,65.1,59.8,30.13,SSW,209,0.0,4.0,83,0.00,,,0.00,VWS V14.01,2013-06-20 13:50:00,
2013-06-20 09:53:00,64.8,59.9,30.13,West,277,1.0,4.0,84,0.00,,CLR,0.00,VWS V14.01,2013-06-20 13:53:00,
2013-06-20 09:58:00,65.1,59.8,30.13,SSW,209,0.0,0.0,83,0.00,,CLR,0.00,VWS V14.01,2013-06-20 13:58:00,
2013-06-20 10:00:00,65.8,60.2,30.12,West,259,1.0,5.0,82,0.00,,,0.00,VWS V14.01,2013-06-20 14:00:00,
2013-06-20 10:03:00,65.6,60.3,30.13,West,275,0.0,4.0,83,0.00,,CLR,0.00,VWS V14.01,2013-06-20 14:03:00,
2013-06-20 10:08:00,65.8,60.2,30.12,West,259,0.0,1.0,82,0.00,,CLR,0.00,VWS V14.01,2013-06-20 14:08:00,
2013-06-20 10:10:00,67.0,60.6,30.12,ESE,117,0.0,3.0,80,0.00,,,0.00,VWS V14.01,2013-06-20 14:10:00,
2013-06-20 10:13:00,66.6,61.3,30.12,SE,128,0.0,3.0,83,0.00,,CLR,0.00,VWS V14.01,2013-06-20 14:13:00,
2013-06-20 10:18:00,67.0,60.6,30.12,ESE,117,0.0,0.0,80,0.00,,CLR,0.00,VWS V14.01,2013-06-20 14:18:00,
2013-06-20 10:20:00,68.4,60.5,30.13,East,87,1.0,3.0,76,0.00,,,0.00,VWS V14.01,2013-06-20 14:20:00,
2013-06-20 10:23:00,67.8,60.7,30.13,West,279,0.0,3.0,78,0.00,,CLR,0.00,VWS V14.01,2013-06-20 14:23:00,
2013-06-20 10:28:00,68.5,60.6,30.13,East,87,0.0,1.0,76,0.00,,CLR,0.00,VWS V14.01,2013-06-20 14:28:00,
2013-06-20 10:30:00,68.0,59.8,30.13,WNW,296,0.0,5.0,75,0.00,,,0.00,VWS V14.01,2013-06-20 14:30:00,
2013-06-20 10:33:00,68.4,59.8,30.13,West,262,1.0,5.0,74,0.00,,CLR,0.00,VWS V14.01,2013-06-20 14:33:00,
2013-06-20 10:38:00,68.0,59.4,30.13,WNW,296,0.0,0.0,74,0.00,,CLR,0.00,VWS V14.01,2013-06-20 14:38:00,
2013-06-20 10:40:00,68.3,58.2,30.13,WNW,296,6.0,13.0,70,0.00,,,0.00,VWS V14.01,2013-06-20 14:40:00,
2013-06-20 10:43:00,68.3,59.3,30.13,WNW,295,10.0,10.0,73,0.00,,CLR,0.00,VWS V14.01,2013-06-20 14:43:00,
2013-06-20 10:48:00,68.2,58.0,30.13,WNW,292,6.0,7.0,70,0.00,,CLR,0.00,VWS V14.01,2013-06-20 14:48:00,
2013-06-20 10:50:00,67.8,58.1,30.14,WNW,286,5.0,10.0,71,0.00,,,0.00,VWS V14.01,2013-06-20 14:50:00,
2013-06-20 10:53:00,67.8,58.1,30.14,NW,306,4.0,10.0,71,0.00,,CLR,0.00,VWS V14.01,2013-06-20 14:53:00,
2013-06-20 10:58:00,67.8,58.1,30.14,WNW,289,6.0,6.0,71,0.00,,CLR,0.00,VWS V14.01,2013-06-20 14:58:00,
2013-06-20 11:00:00,68.6,58.0,30.14,NE,48,0.0,8.0,69,0.00,,,0.00,VWS V14.01,2013-06-20 15:00:00,
2013-06-20 11:03:00,68.1,58.3,30.14,West,276,7.0,8.0,71,0.00,,CLR,0.00,VWS V14.01,2013-06-20 15:03:00,
2013-06-20 11:08:00,68.6,58.0,30.14,NE,45,0.0,1.0,69,0.00,,CLR,0.00,VWS V14.01,2013-06-20 15:08:00,
2013-06-20 11:10:00,69.2,59.0,30.14,West,272,2.0,6.0,70,0.00,,,0.00,VWS V14.01,2013-06-20 15:10:00,
2013-06-20 11:13:00,68.9,58.3,30.14,West,272,0.0,6.0,69,0.00,,CLR,0.00,VWS V14.01,2013-06-20 15:13:00,
2013-06-20 11:18:00,69.2,59.0,30.14,West,272,1.0,2.0,70,0.00,,CLR,0.00,VWS V14.01,2013-06-20 15:18:00,
2013-06-20 11:20:00,70.1,60.3,30.14,WSW,248,2.0,6.0,71,0.00,,,0.00,VWS V14.01,2013-06-20 15:20:00,
2013-06-20 11:23:00,69.4,58.8,30.14,West,271,6.0,6.0,69,0.00,,CLR,0.00,VWS V14.01,2013-06-20 15:23:00,
2013-06-20 11:28:00,70.2,60.4,30.14,WSW,248,0.0,2.0,71,0.00,,CLR,0.00,VWS V14.01,2013-06-20 15:28:00,
2013-06-20 11:30:00,70.7,59.2,30.14,WSW,242,6.0,6.0,67,0.00,,,0.00,VWS V14.01,2013-06-20 15:30:00,
2013-06-20 11:33:00,70.8,58.9,30.14,SSW,192,1.0,5.0,66,0.00,,CLR,0.00,VWS V14.01,2013-06-20 15:33:00,
2013-06-20 11:38:00,70.7,59.2,30.14,SW,236,4.0,6.0,67,0.00,,CLR,0.00,VWS V14.01,2013-06-20 15:38:00,
2013-06-20 11:40:00,70.3,57.1,30.14,WNW,283,4.0,13.0,63,0.00,,,0.00,VWS V14.01,2013-06-20 15:40:00,
2013-06-20 11:43:00,70.6,57.0,30.14,West,262,10.0,13.0,62,0.00,,CLR,0.00,VWS V14.01,2013-06-20 15:43:00,
2013-06-20 11:48:00,70.2,57.5,30.14,West,277,5.0,7.0,64,0.00,,CLR,0.00,VWS V14.01,2013-06-20 15:48:00,
2013-06-20 11:50:00,71.0,58.2,30.14,West,279,2.0,7.0,64,0.00,,,0.00,VWS V14.01,2013-06-20 15:50:00,
2013-06-20 11:53:00,70.3,57.6,30.14,WNW,285,3.0,7.0,64,0.00,,CLR,0.00,VWS V14.01,2013-06-20 15:53:00,
2013-06-20 11:58:00,71.2,58.0,30.14,West,279,4.0,4.0,63,0.00,,CLR,0.00,VWS V14.01,2013-06-20 15:58:00,
2013-06-20 12:00:00,71.1,57.4,30.14,West,280,5.0,10.0,62,0.00,,,0.00,VWS V14.01,2013-06-20 16:00:00,
2013-06-20 12:03:00,71.2,57.1,30.14,South,190,2.0,6.0,61,0.00,,CLR,0.00,VWS V14.01,2013-06-20 16:03:00,
2013-06-20 12:08:00,71.2,57.5,30.14,WNW,286,8.0,9.0,62,0.00,,CLR,0.00,VWS V14.01,2013-06-20 16:08:00,
2013-06-20 12:10:00,70.8,56.7,30.14,West,279,2.0,12.0,61,0.00,,,0.00,VWS V14.01,2013-06-20 16:10:00,
2013-06-20 12:13:00,71.0,56.0,30.14,WNW,284,6.0,12.0,59,0.00,,CLR,0.00,VWS V14.01,2013-06-20 16:13:00,
2013-06-20 12:18:00,70.8,56.2,30.14,West,279,2.0,3.0,60,0.00,,CLR,0.00,VWS V14.01,2013-06-20 16:18:00,
2013-06-20 12:20:00,71.1,55.6,30.14,West,276,3.0,7.0,58,0.00,,,0.00,VWS V14.01,2013-06-20 16:20:00,
2013-06-20 12:23:00,71.0,57.3,30.14,West,279,4.0,4.0,62,0.00,,CLR,0.00,VWS V14.01,2013-06-20 16:23:00,
2013-06-20 12:28:00,71.0,55.5,30.14,West,276,2.0,3.0,58,0.00,,CLR,0.00,VWS V14.01,2013-06-20 16:28:00,
2013-06-20 12:30:00,71.3,57.6,30.13,West,276,2.0,4.0,62,0.00,,,0.00,VWS V14.01,2013-06-20 16:30:00,
2013-06-20 12:33:00,70.8,55.8,30.14,West,276,2.0,3.0,59,0.00,,CLR,0.00,VWS V14.01,2013-06-20 16:33:00,
2013-06-20 12:38:00,71.3,57.2,30.13,West,276,1.0,3.0,61,0.00,,CLR,0.00,VWS V14.01,2013-06-20 16:38:00,
2013-06-20 12:40:00,72.1,57.5,30.13,WNW,300,5.0,11.0,60,0.00,,,0.00,VWS V14.01,2013-06-20 16:40:00,
2013-06-20 12:43:00,72.4,57.3,30.13,West,276,1.0,5.0,59,0.00,,CLR,0.00,VWS V14.01,2013-06-20 16:43:00,
2013-06-20 12:48:00,72.2,57.6,30.13,WNW,300,3.0,5.0,60,0.00,,CLR,0.00,VWS V14.01,2013-06-20 16:48:00,
2013-06-20 12:50:00,72.2,57.1,30.12,WSW,240,9.0,11.0,59,0.00,,,0.00,VWS V14.01,2013-06-20 16:50:00,
2013-06-20 12:53:00,72.5,59.2,30.12,West,280,9.0,10.0,63,0.00,,CLR,0.00,VWS V14.01,2013-06-20 16:53:00,
2013-06-20 12:58:00,72.0,56.4,30.12,SW,232,6.0,9.0,58,0.00,,CLR,0.00,VWS V14.01,2013-06-20 16:58:00,
2013-06-20 13:00:00,72.0,56.4,30.13,WNW,300,2.0,9.0,58,0.00,,,0.00,VWS V14.01,2013-06-20 17:00:00,
2013-06-20 13:03:00,72.5,58.8,30.12,WNW,286,6.0,9.0,62,0.00,,FEW039,0.00,VWS V14.01,2013-06-20 17:03:00,
2013-06-20 13:08:00,71.9,56.3,30.13,WNW,300,4.0,4.0,58,0.00,,FEW039,0.00,VWS V14.01,2013-06-20 17:08:00,
2013-06-20 13:10:00,72.4,57.8,30.13,West,279,2.0,7.0,60,0.00,,,0.00,VWS V14.01,2013-06-20 17:10:00,
2013-06-20 13:13:00,72.1,55.6,30.13,West,279,4.0,7.0,56,0.00,,FEW039,0.00,VWS V14.01,2013-06-20 17:13:00,
2013-06-20 13:18:00,72.6,57.5,30.13,West,275,3.0,6.0,59,0.00,,FEW039,0.00,VWS V14.01,2013-06-20 17:18:00,
2013-06-20 13:20:00,73.0,56.9,30.12,WNW,288,6.0,10.0,57,0.00,,,0.00,VWS V14.01,2013-06-20 17:20:00,
2013-06-20 13:23:00,73.1,55.0,30.12,SSE,148,1.0,6.0,53,0.00,,FEW039,0.00,VWS V14.01,2013-06-20 17:23:00,
2013-06-20 13:29:00,72.9,56.3,30.12,WNW,290,2.0,7.0,56,0.00,,FEW039,0.00,VWS V14.01,2013-06-20 17:29:00,
2013-06-20 13:30:00,72.8,55.2,30.12,North,355,4.0,9.0,54,0.00,,,0.00,VWS V14.01,2013-06-20 17:30:00,
2013-06-20 13:34:00,72.4,55.3,30.12,NW,304,0.0,9.0,55,0.00,,FEW039,0.00,VWS V14.01,2013-06-20 17:34:00,
2013-06-20 13:39:00,72.8,55.2,30.12,North,360,1.0,4.0,54,0.00,,FEW039,0.00,VWS V14.01,2013-06-20 17:39:00,
2013-06-20 13:40:00,73.1,56.5,30.12,West,276,3.0,7.0,56,0.00,,,0.00,VWS V14.01,2013-06-20 17:40:00,
2013-06-20 13:44:00,73.3,57.7,30.12,West,259,2.0,5.0,58,0.00,,FEW039,0.00,VWS V14.01,2013-06-20 17:44:00,
2013-06-20 13:49:00,73.4,57.7,30.12,West,274,0.0,4.0,58,0.00,,FEW039,0.00,VWS V14.01,2013-06-20 17:49:00,
2013-06-20 13:50:00,74.0,58.3,30.11,West,264,0.0,6.0,58,0.00,,,0.00,VWS V14.01,2013-06-20 17:50:00,
2013-06-20 13:54:00,73.4,56.8,30.11,SW,224,0.0,6.0,56,0.00,,FEW039,0.00,VWS V14.01,2013-06-20 17:54:00,
2013-06-20 13:59:00,74.3,58.1,30.11,SE,132,5.0,5.0,57,0.00,,FEW039,0.00,VWS V14.01,2013-06-20 17:59:00,
2013-06-20 14:00:00,74.4,56.2,30.11,West,272,7.0,8.0,53,0.00,,,0.00,VWS V14.01,2013-06-20 18:00:00,
2013-06-20 14:04:00,74.6,56.4,30.11,East,90,0.0,5.0,53,0.00,,SCT048,0.00,VWS V14.01,2013-06-20 18:04:00,
2013-06-20 14:09:00,74.3,55.6,30.11,West,267,6.0,9.0,52,0.00,,SCT048,0.00,VWS V14.01,2013-06-20 18:09:00,
2013-06-20 14:10:00,74.2,56.5,30.11,West,269,7.0,11.0,54,0.00,,,0.00,VWS V14.01,2013-06-20 18:10:00,
2013-06-20 14:14:00,73.9,55.2,30.11,West,264,2.0,9.0,52,0.00,,SCT048,0.00,VWS V14.01,2013-06-20 18:14:00,
2013-06-20 14:19:00,74.3,57.1,30.11,WNW,284,6.0,7.0,55,0.00,,SCT048,0.00,VWS V14.01,2013-06-20 18:19:00,
2013-06-20 14:20:00,74.7,55.4,30.11,WNW,285,0.0,7.0,51,0.00,,,0.00,VWS V14.01,2013-06-20 18:20:00,
2013-06-20 14:24:00,74.3,56.6,30.11,WNW,286,0.0,7.0,54,0.00,,SCT048,0.00,VWS V14.01,2013-06-20 18:24:00,
2013-06-20 14:29:00,74.8,55.5,30.11,WNW,285,6.0,6.0,51,0.00,,SCT048,0.00,VWS V14.01,2013-06-20 18:29:00,
2013-06-20 14:30:00,74.9,57.7,30.11,West,263,1.0,6.0,55,0.00,,,0.00,VWS V14.01,2013-06-20 18:30:00,
2013-06-20 14:34:00,74.6,55.3,30.11,West,263,2.0,6.0,51,0.00,,SCT048,0.00,VWS V14.01,2013-06-20 18:34:00,
2013-06-20 14:39:00,75.1,57.8,30.11,West,263,1.0,1.0,55,0.00,,SCT048,0.00,VWS V14.01,2013-06-20 18:39:00,
2013-06-20 14:40:00,74.8,54.9,30.11,West,281,6.0,10.0,50,0.00,,,0.00,VWS V14.01,2013-06-20 18:40:00,
2013-06-20 14:44:00,75.0,56.7,30.11,WSW,252,9.0,10.0,53,0.00,,SCT048,0.00,VWS V14.01,2013-06-20 18:44:00,
2013-06-20 14:49:00,74.8,56.5,30.11,West,274,2.0,7.0,53,0.00,,SCT048,0.00,VWS V14.01,2013-06-20 18:49:00,
2013-06-20 14:50:00,74.8,56.5,30.10,West,276,2.0,7.0,53,0.00,,,0.00,VWS V14.01,2013-06-20 18:50:00,
2013-06-20 14:54:00,74.6,55.8,30.10,WNW,298,5.0,7.0,52,0.00,,SCT048,0.00,VWS V14.01,2013-06-20 18:54:00,
2013-06-20 14:59:00,75.0,58.3,30.10,ESE,123,4.0,7.0,56,0.00,,SCT048,0.00,VWS V14.01,2013-06-20 18:59:00,
2013-06-20 15:00:00,74.9,57.7,30.10,SSW,200,3.0,7.0,55,0.00,,,0.00,VWS V14.01,2013-06-20 19:00:00,
2013-06-20 15:04:00,75.2,57.4,30.10,SW,225,1.0,7.0,54,0.00,,SCT055,0.00,VWS V14.01,2013-06-20 19:04:00,
2013-06-20 15:09:00,74.6,54.2,30.10,SSW,200,0.0,4.0,49,0.00,,SCT055,0.00,VWS V14.01,2013-06-20 19:09:00,
2013-06-20 15:10:00,74.8,57.6,30.10,SE,136,0.0,4.0,55,0.00,,,0.00,VWS V14.01,2013-06-20 19:10:00,
2013-06-20 15:14:00,74.2,54.4,30.10,WSW,255,1.0,4.0,50,0.00,,SCT055,0.00,VWS V14.01,2013-06-20 19:14:00,
2013-06-20 15:19:00,75.0,54.6,30.10,South,173,1.0,2.0,49,0.00,,SCT055,0.00,VWS V14.01,2013-06-20 19:19:00,
2013-06-20 15:20:00,76.1,54.4,30.10,WSW,250,4.0,5.0,47,0.00,,,0.00,VWS V14.01,2013-06-20 19:20:00,
2013-06-20 15:24:00,75.9,54.8,30.10,NE,56,1.0,3.0,48,0.00,,SCT055,0.00,VWS V14.01,2013-06-20 19:24:00,
2013-06-20 15:29:00,75.9,55.4,30.10,South,178,1.0,4.0,49,0.00,,SCT055,0.00,VWS V14.01,2013-06-20 19:29:00,
2013-06-20 15:30:00,75.6,54.0,30.10,WSW,252,6.0,10.0,47,0.00,,,0.00,VWS V14.01,2013-06-20 19:30:00,
2013-06-20 15:34:00,76.0,56.0,30.10,WSW,252,4.0,10.0,50,0.00,,SCT055,0.00,VWS V14.01,2013-06-20 19:34:00,
2013-06-20 15:39:00,75.6,55.7,30.10,West,262,6.0,7.0,50,0.00,,SCT055,0.00,VWS V14.01,2013-06-20 19:39:00,
2013-06-20 15:40:00,75.7,55.2,30.10,WNW,285,3.0,10.0,49,0.00,,,0.00,VWS V14.01,2013-06-20 19:40:00,
2013-06-20 15:44:00,75.6,54.5,30.10,WNW,298,6.0,10.0,48,0.00,,SCT055,0.00,VWS V14.01,2013-06-20 19:44:00,
2013-06-20 15:49:00,75.9,56.5,30.10,WSW,250,6.0,7.0,51,0.00,,SCT055,0.00,VWS V14.01,2013-06-20 19:49:00,
2013-06-20 15:50:00,76.7,57.8,30.10,WSW,247,3.0,7.0,52,0.00,,,0.00,VWS V14.01,2013-06-20 19:50:00,
2013-06-20 15:54:00,76.2,55.7,30.10,WSW,246,0.0,7.0,49,0.00,,SCT055,0.00,VWS V14.01,2013-06-20 19:54:00,
2013-06-20 15:59:00,76.6,57.7,30.10,WSW,247,0.0,3.0,52,0.00,,SCT055,0.00,VWS V14.01,2013-06-20 19:59:00,
2013-06-20 16:00:00,76.7,55.5,30.10,WSW,244,5.0,11.0,48,0.00,,,0.00,VWS V14.01,2013-06-20 20:00:00,
2013-06-20 16:04:00,76.8,55.7,30.10,WNW,282,3.0,11.0,48,0.00,,SCT049,0.00,VWS V14.01,2013-06-20 20:04:00,
2013-06-20 16:09:00,76.7,55.5,30.10,West,262,5.0,6.0,48,0.00,,SCT049,0.00,VWS V14.01,2013-06-20 20:09:00,
2013-06-20 16:10:00,76.8,56.2,30.10,West,265,3.0,6.0,49,0.00,,,0.00,VWS V14.01,2013-06-20 20:10:00,
2013-06-20 16:14:00,76.6,57.1,30.10,West,263,4.0,6.0,51,0.00,,SCT049,0.00,VWS V14.01,2013-06-20 20:14:00,
2013-06-20 16:19:00,76.7,55.0,30.10,WNW,288,3.0,5.0,47,0.00,,SCT049,0.00,VWS V14.01,2013-06-20 20:19:00,
2013-06-20 16:20:00,76.4,52.9,30.10,SW,227,4.0,11.0,44,0.00,,,0.00,VWS V14.01,2013-06-20 20:20:00,
2013-06-20 16:24:00,76.6,54.3,30.10,WSW,253,6.0,11.0,46,0.00,,SCT049,0.00,VWS V14.01,2013-06-20 20:24:00,
2013-06-20 16:29:00,76.4,55.3,30.10,SW,230,4.0,4.0,48,0.00,,SCT049,0.00,VWS V14.01,2013-06-20 20:29:00,
2013-06-20 16:30:00,76.5,53.0,30.10,WSW,257,3.0,10.0,44,0.00,,,0.00,VWS V14.01,2013-06-20 20:30:00,
2013-06-20 16:34:00,76.6,53.7,30.10,SW,218,3.0,10.0,45,0.00,,SCT049,0.00,VWS V14.01,2013-06-20 20:34:00,
2013-06-20 16:39:00,76.6,55.5,30.10,NW,318,4.0,8.0,48,0.00,,SCT049,0.00,VWS V14.01,2013-06-20 20:39:00,
2013-06-20 16:40:00,76.1,58.8,30.10,NW,304,5.0,12.0,55,0.00,,,0.00,VWS V14.01,2013-06-20 20:40:00,
2013-06-20 16:44:00,76.1,57.2,30.10,WNW,288,8.0,12.0,52,0.00,,SCT049,0.00,VWS V14.01,2013-06-20 20:44:00,
2013-06-20 16:49:00,76.2,58.9,30.10,NW,314,6.0,10.0,55,0.00,,SCT049,0.00,VWS V14.01,2013-06-20 20:49:00,
2013-06-20 16:50:00,76.4,59.6,30.10,North,355,7.0,10.0,56,0.00,,,0.00,VWS V14.01,2013-06-20 20:50:00,
2013-06-20 16:54:00,76.2,58.4,30.10,NW,309,2.0,10.0,54,0.00,,SCT049,0.00,VWS V14.01,2013-06-20 20:54:00,
2013-06-20 16:59:00,76.2,57.8,30.10,NNW,342,9.0,10.0,53,0.00,,SCT049,0.00,VWS V14.01,2013-06-20 20:59:00,
2013-06-20 17:00:00,76.2,58.4,30.10,WNW,294,9.0,10.0,54,0.00,,,0.00,VWS V14.01,2013-06-20 21:00:00,
2013-06-20 17:04:00,76.2,57.3,30.10,WNW,292,7.0,10.0,52,0.00,,SCT060,0.00,VWS V14.01,2013-06-20 21:04:00,
2013-06-20 17:09:00,76.2,57.8,30.10,WNW,296,5.0,9.0,53,0.00,,SCT060,0.00,VWS V14.01,2013-06-20 21:09:00,
2013-06-20 17:10:00,75.7,58.9,30.10,WNW,294,5.0,12.0,56,0.00,,,0.00,VWS V14.01,2013-06-20 21:10:00,
2013-06-20 17:14:00,75.7,58.4,30.10,WNW,295,6.0,12.0,55,0.00,,SCT060,0.00,VWS V14.01,2013-06-20 21:14:00,
2013-06-20 17:19:00,75.8,59.0,30.10,WNW,301,2.0,7.0,56,0.00,,SCT060,0.00,VWS V14.01,2013-06-20 21:19:00,
2013-06-20 17:20:00,75.7,57.9,30.10,WNW,297,6.0,11.0,54,0.00,,,0.00,VWS V14.01,2013-06-20 21:20:00,
2013-06-20 17:24:00,75.9,58.6,30.10,West,272,4.0,11.0,55,0.00,,SCT060,0.00,VWS V14.01,2013-06-20 21:24:00,
2013-06-20 17:29:00,75.7,58.4,30.10,WNW,294,6.0,7.0,55,0.00,,SCT060,0.00,VWS V14.01,2013-06-20 21:29:00,
2013-06-20 17:30:00,75.4,58.1,30.10,NW,310,2.0,13.0,55,0.00,,,0.00,VWS V14.01,2013-06-20 21:30:00,
2013-06-20 17:34:00,75.5,57.7,30.10,WNW,286,7.0,13.0,54,0.00,,SCT060,0.00,VWS V14.01,2013-06-20 21:34:00,
2013-06-20 17:39:00,75.6,58.8,30.10,NW,319,3.0,4.0,56,0.00,,SCT060,0.00,VWS V14.01,2013-06-20 21:39:00,
2013-06-20 17:40:00,76.0,59.7,30.10,NW,313,4.0,7.0,57,0.00,,,0.00,VWS V14.01,2013-06-20 21:40:00,
2013-06-20 17:44:00,75.9,59.6,30.10,WNW,301,4.0,7.0,57,0.00,,SCT060,0.00,VWS V14.01,2013-06-20 21:44:00,
2013-06-20 17:49:00,75.9,59.1,30.10,WNW,291,4.0,6.0,56,0.00,,SCT060,0.00,VWS V14.01,2013-06-20 21:49:00,
2013-06-20 17:50:00,75.0,58.8,30.10,WNW,298,3.0,11.0,57,0.00,,,0.00,VWS V14.01,2013-06-20 21:50:00,
2013-06-20 17:54:00,75.3,58.0,30.10,WNW,296,7.0,10.0,55,0.00,,SCT060,0.00,VWS V14.01,2013-06-20 21:54:00,
2013-06-20 17:59:00,75.0,59.2,30.10,WNW,296,6.0,10.0,58,0.00,,SCT060,0.00,VWS V14.01,2013-06-20 21:59:00,
2013-06-20 18:00:00,74.8,58.6,30.10,NNW,339,6.0,13.0,57,0.00,,,0.00,VWS V14.01,2013-06-20 22:00:00,
2013-06-20 18:05:00,74.9,59.1,30.10,WNW,294,9.0,13.0,58,0.00,,OVC055,0.00,VWS V14.01,2013-06-20 22:05:00,
2013-06-20 18:10:00,74.7,58.5,30.10,NW,317,9.0,10.0,57,0.00,,OVC055,0.00,VWS V14.01,2013-06-20 22:10:00,
2013-06-20 18:15:00,74.6,58.4,30.10,WNW,296,5.0,13.0,57,0.00,,OVC055,0.00,VWS V14.01,2013-06-20 22:15:00,
2013-06-20 18:20:00,74.7,59.4,30.10,NNW,327,4.0,11.0,59,0.00,,OVC055,0.00,VWS V14.01,2013-06-20 22:20:00,
2013-06-20 18:25:00,74.6,58.9,30.10,NW,321,7.0,12.0,58,0.00,,OVC055,0.00,VWS V14.01,2013-06-20 22:25:00,
2013-06-20 18:30:00,74.6,58.9,30.10,West,276,6.0,7.0,58,0.00,,OVC055,0.00,VWS V14.01,2013-06-20 22:30:00,
2013-06-20 18:35:00,74.1,58.9,30.10,NNW,328,7.0,12.0,59,0.00,,OVC055,0.00,VWS V14.01,2013-06-20 22:35:00,
2013-06-20 18:40:00,73.9,59.2,30.11,North,5,3.0,9.0,60,0.00,,OVC055,0.00,VWS V14.01,2013-06-20 22:40:00,
2013-06-20 18:45:00,73.9,59.2,30.11,NNW,340,4.0,9.0,60,0.00,,OVC055,0.00,VWS V14.01,2013-06-20 22:45:00,
2013-06-20 18:50:00,74.0,58.8,30.11,NNW,339,2.0,6.0,59,0.00,,OVC055,0.00,VWS V14.01,2013-06-20 22:50:00,
2013-06-20 18:55:00,74.0,58.8,30.11,NW,312,4.0,7.0,59,0.00,,OVC055,0.00,VWS V14.01,2013-06-20 22:55:00,
2013-06-20 19:00:00,74.2,59.0,30.11,NW,323,5.0,6.0,59,0.00,,OVC055,0.00,VWS V14.01,2013-06-20 23:00:00,
2013-06-20 19:05:00,73.8,58.6,30.11,WNW,296,7.0,10.0,59,0.00,,OVC046,0.00,VWS V14.01,2013-06-20 23:05:00,
2013-06-20 19:10:00,73.7,57.5,30.12,NW,318,4.0,10.0,57,0.00,,OVC046,0.00,VWS V14.01,2013-06-20 23:10:00,
2013-06-20 19:15:00,73.7,58.0,30.12,NW,306,5.0,10.0,58,0.00,,OVC046,0.00,VWS V14.01,2013-06-20 23:15:00,
2013-06-20 19:20:00,73.4,57.3,30.12,NW,311,8.0,11.0,57,0.00,,OVC046,0.00,VWS V14.01,2013-06-20 23:20:00,
2013-06-20 19:25:00,73.0,57.4,30.11,NNW,336,3.0,11.0,58,0.00,,OVC046,0.00,VWS V14.01,2013-06-20 23:25:00,
2013-06-20 19:30:00,72.6,57.0,30.11,North,350,3.0,10.0,58,0.00,,OVC046,0.00,VWS V14.01,2013-06-20 23:30:00,
2013-06-20 19:35:00,72.3,57.2,30.11,NW,319,3.0,10.0,59,0.00,,OVC046,0.00,VWS V14.01,2013-06-20 23:35:00,
2013-06-20 19:40:00,71.9,57.3,30.11,WNW,302,4.0,6.0,60,0.00,,OVC046,0.00,VWS V14.01,2013-06-20 23:40:00,
2013-06-20 19:45:00,71.6,57.0,30.11,NW,315,6.0,9.0,60,0.00,,OVC046,0.00,VWS V14.01,2013-06-20 23:45:00,
2013-06-20 19:50:00,71.5,56.9,30.11,NW,317,3.0,6.0,60,0.00,,OVC046,0.00,VWS V14.01,2013-06-20 23:50:00,
2013-06-20 19:55:00,71.2,57.1,30.11,NW,306,4.0,6.0,61,0.00,,OVC046,0.00,VWS V14.01,2013-06-20 23:55:00,
2013-06-20 20:00:00,71.1,57.0,30.11,NW,314,4.0,6.0,61,0.00,,OVC046,0.00,VWS V14.01,2013-06-21 00:00:00,
2013-06-20 20:05:00,71.0,57.3,30.11,NW,319,4.0,6.0,62,0.00,,SCT055,0.00,VWS V14.01,2013-06-21 00:05:00,
2013-06-20 20:10:00,71.0,57.8,30.11,NW,313,3.0,3.0,63,0.00,,SCT055,0.00,VWS V14.01,2013-06-21 00:10:00,
2013-06-20 20:15:00,70.7,58.4,30.11,WNW,301,2.0,6.0,65,0.00,,SCT055,0.00,VWS V14.01,2013-06-21 00:15:00,
2013-06-20 20:20:00,70.3,58.4,30.11,WNW,301,3.0,5.0,66,0.00,,SCT055,0.00,VWS V14.01,2013-06-21 00:20:00,
2013-06-20 20:25:00,70.1,58.2,30.10,WNW,301,0.0,5.0,66,0.00,,SCT055,0.00,VWS V14.01,2013-06-21 00:25:00,
2013-06-20 20:30:00,69.3,57.9,30.10,WNW,300,0.0,1.0,67,0.00,,SCT055,0.00,VWS V14.01,2013-06-21 00:30:00,
2013-06-20 20:35:00,68.8,57.8,30.10,WNW,300,0.0,1.0,68,0.00,,SCT055,0.00,VWS V14.01,2013-06-21 00:35:00,
2013-06-20 20:40:00,68.1,58.0,30.10,WNW,300,0.0,0.0,70,0.00,,SCT055,0.00,VWS V14.01,2013-06-21 00:40:00,
2013-06-20 20:45:00,67.7,57.6,30.10,WNW,301,0.0,1.0,70,0.00,,SCT055,0.00,VWS V14.01,2013-06-21 00:45:00,
2013-06-20 20:50:00,67.4,57.7,30.10,WNW,301,0.0,0.0,71,0.00,,SCT055,0.00,VWS V14.01,2013-06-21 00:50:00,
2013-06-20 20:55:00,67.2,57.1,30.11,WNW,301,0.0,0.0,70,0.00,,SCT055,0.00,VWS V14.01,2013-06-21 00:55:00,
2013-06-20 21:00:00,67.3,57.2,30.11,WNW,300,0.0,1.0,70,0.00,,SCT055,0.00,VWS V14.01,2013-06-21 01:00:00,
2013-06-20 21:05:00,67.0,56.9,30.11,WNW,300,0.0,1.0,70,0.00,,FEW055,0.00,VWS V14.01,2013-06-21 01:05:00,
2013-06-20 21:10:00,66.6,56.9,30.11,WNW,300,0.0,0.0,71,0.00,,FEW055,0.00,VWS V14.01,2013-06-21 01:10:00,
2013-06-20 21:15:00,66.2,56.5,30.11,WNW,301,0.0,1.0,71,0.00,,FEW055,0.00,VWS V14.01,2013-06-21 01:15:00,
2013-06-20 21:20:00,65.5,56.2,30.11,WNW,300,0.0,1.0,72,0.00,,FEW055,0.00,VWS V14.01,2013-06-21 01:20:00,
2013-06-20 21:25:00,64.9,56.0,30.11,WNW,300,0.0,1.0,73,0.00,,FEW055,0.00,VWS V14.01,2013-06-21 01:25:00,
2013-06-20 21:30:00,64.4,55.9,30.11,WNW,301,0.0,0.0,74,0.00,,FEW055,0.00,VWS V14.01,2013-06-21 01:30:00,
2013-06-20 21:35:00,64.0,55.6,30.11,WNW,301,0.0,0.0,74,0.00,,FEW055,0.00,VWS V14.01,2013-06-21 01:35:00,
2013-06-20 21:40:00,63.6,55.5,30.11,WNW,301,0.0,0.0,75,0.00,,FEW055,0.00,VWS V14.01,2013-06-21 01:40:00,
2013-06-20 21:45:00,62.9,55.2,30.11,WNW,300,0.0,0.0,76,0.00,,FEW055,0.00,VWS V14.01,2013-06-21 01:45:00,
2013-06-20 21:50:00,62.2,54.9,30.11,WNW,300,0.0,0.0,77,0.00,,FEW055,0.00,VWS V14.01,2013-06-21 01:50:00,
2013-06-20 21:55:00,61.6,54.7,30.12,WNW,300,0.0,1.0,78,0.00,,FEW055,0.00,VWS V14.01,2013-06-21 01:55:00,
2013-06-20 22:00:00,60.6,54.4,30.12,WNW,300,4.0,4.0,80,0.00,,FEW055,0.00,VWS V14.01,2013-06-21 02:00:00,
2013-06-20 22:05:00,60.0,54.2,30.12,WNW,301,1.0,4.0,81,0.00,,CLR,0.00,VWS V14.01,2013-06-21 02:05:00,
2013-06-20 22:10:00,59.5,54.0,30.13,WNW,300,0.0,2.0,82,0.00,,CLR,0.00,VWS V14.01,2013-06-21 02:10:00,
2013-06-20 22:15:00,59.5,54.0,30.13,WNW,300,2.0,2.0,82,0.00,,CLR,0.00,VWS V14.01,2013-06-21 02:15:00,
2013-06-20 22:20:00,59.5,54.0,30.13,WNW,301,0.0,3.0,82,0.00,,CLR,0.00,VWS V14.01,2013-06-21 02:20:00,
2013-06-20 22:25:00,59.4,53.9,30.13,WNW,300,0.0,3.0,82,0.00,,CLR,0.00,VWS V14.01,2013-06-21 02:25:00,
2013-06-20 22:30:00,59.3,53.8,30.13,WNW,300,0.0,0.0,82,0.00,,CLR,0.00,VWS V14.01,2013-06-21 02:30:00,
2013-06-20 22:35:00,59.2,53.7,30.13,WNW,300,3.0,4.0,82,0.00,,CLR,0.00,VWS V14.01,2013-06-21 02:35:00,
2013-06-20 22:40:00,58.9,53.4,30.13,WNW,301,2.0,3.0,82,0.00,,CLR,0.00,VWS V14.01,2013-06-21 02:40:00,
2013-06-20 22:45:00,58.6,53.5,30.13,WNW,300,2.0,3.0,83,0.00,,CLR,0.00,VWS V14.01,2013-06-21 02:45:00,
2013-06-20 22:50:00,58.6,53.5,30.13,WNW,301,0.0,3.0,83,0.00,,CLR,0.00,VWS V14.01,2013-06-21 02:50:00,
2013-06-20 22:55:00,58.5,53.4,30.13,WNW,301,2.0,3.0,83,0.00,,CLR,0.00,VWS V14.01,2013-06-21 02:55:00,
2013-06-20 23:00:00,58.0,53.5,30.13,WNW,301,0.0,2.0,85,0.00,,,0.00,VWS V14.01,2013-06-21 03:00:00,
2013-06-20 23:01:00,58.1,53.3,30.13,WNW,300,1.0,2.0,84,0.00,,CLR,0.00,VWS V14.01,2013-06-21 03:01:00,
2013-06-20 23:06:00,58.0,53.5,30.13,WNW,300,1.0,2.0,85,0.00,,CLR,0.00,VWS V14.01,2013-06-21 03:06:00,
2013-06-20 23:10:00,58.0,53.8,30.13,WNW,301,0.0,3.0,86,0.00,,,0.00,VWS V14.01,2013-06-21 03:10:00,
2013-06-20 23:11:00,58.0,53.5,30.13,WNW,301,1.0,2.0,85,0.00,,CLR,0.00,VWS V14.01,2013-06-21 03:11:00,
2013-06-20 23:16:00,58.1,53.9,30.13,WNW,300,2.0,3.0,86,0.00,,CLR,0.00,VWS V14.01,2013-06-21 03:16:00,
2013-06-20 23:20:00,57.8,53.7,30.13,WNW,301,0.0,2.0,86,0.00,,,0.00,VWS V14.01,2013-06-21 03:20:00,
2013-06-20 23:21:00,58.0,53.8,30.13,WNW,300,0.0,2.0,86,0.00,,CLR,0.00,VWS V14.01,2013-06-21 03:21:00,
2013-06-20 23:26:00,57.9,53.7,30.13,WNW,301,0.0,2.0,86,0.00,,CLR,0.00,VWS V14.01,2013-06-21 03:26:00,
2013-06-20 23:30:00,57.6,53.8,30.13,WNW,300,0.0,0.0,87,0.00,,,0.00,VWS V14.01,2013-06-21 03:30:00,
2013-06-20 23:31:00,57.8,53.7,30.13,WNW,301,0.0,0.0,86,0.00,,CLR,0.00,VWS V14.01,2013-06-21 03:31:00,
2013-06-20 23:36:00,57.6,53.8,30.13,WNW,300,0.0,0.0,87,0.00,,CLR,0.00,VWS V14.01,2013-06-21 03:36:00,
2013-06-20 23:40:00,58.2,55.0,30.13,WNW,300,0.0,1.0,89,0.00,,,0.00,VWS V14.01,2013-06-21 03:40:00,
2013-06-20 23:41:00,57.5,53.7,30.13,WNW,301,0.0,0.0,87,0.00,,CLR,0.00,VWS V14.01,2013-06-21 03:41:00,
2013-06-20 23:46:00,58.1,54.6,30.13,WNW,300,0.0,1.0,88,0.00,,CLR,0.00,VWS V14.01,2013-06-21 03:46:00,
2013-06-20 23:50:00,57.9,54.7,30.13,WNW,301,0.0,1.0,89,0.00,,,0.00,VWS V14.01,2013-06-21 03:50:00,
2013-06-20 23:51:00,58.2,55.0,30.13,WNW,301,0.0,1.0,89,0.00,,CLR,0.00,VWS V14.01,2013-06-21 03:51:00,
2013-06-20 23:56:00,58.0,54.8,30.13,WNW,300,0.0,1.0,89,0.00,,CLR,0.00,VWS V14.01,2013-06-21 03:56:00,